createdAt,value
2023-01-28T00:03:55.522Z,5
2023-01-28T00:09:55.444Z,4
2023-01-28T00:15:55.418Z,4
2023-01-28T00:21:55.371Z,5
2023-01-28T00:27:55.346Z,6
2023-01-28T00:33:55.406Z,6
2023-01-28T00:39:55.367Z,5
2023-01-28T00:45:55.388Z,5
2023-01-28T00:51:55.360Z,5
2023-01-28T00:57:55.373Z,4
2023-01-28T01:03:55.357Z,4
2023-01-28T01:09:55.347Z,4
2023-01-28T01:15:55.394Z,5
2023-01-28T01:21:55.319Z,9
2023-01-28T01:27:55.322Z,10
2023-01-28T01:33:55.358Z,5
2023-01-28T01:39:55.356Z,6
2023-01-28T01:45:55.373Z,6
2023-01-28T01:51:55.374Z,6
2023-01-28T01:57:55.352Z,5
2023-01-28T02:03:55.323Z,7
2023-01-28T02:09:55.363Z,6
2023-01-28T02:16:05.612Z,6
2023-01-28T02:21:55.310Z,6
2023-01-28T02:27:55.373Z,7
2023-01-28T02:33:55.357Z,7
2023-01-28T02:39:55.303Z,6
2023-01-28T02:45:55.383Z,6
2023-01-28T02:51:55.330Z,6
2023-01-28T02:57:55.316Z,6
2023-01-28T03:03:55.365Z,6
2023-01-28T03:09:55.328Z,6
2023-01-28T03:15:55.376Z,6
2023-01-28T03:21:55.357Z,5
2023-01-28T03:27:55.330Z,6
2023-01-28T03:33:55.314Z,5
2023-01-28T03:39:55.331Z,6
2023-01-28T03:45:55.334Z,6
2023-01-28T03:51:55.316Z,5
2023-01-28T03:57:55.336Z,5
2023-01-28T04:03:55.309Z,5
2023-01-28T04:09:55.279Z,5
2023-01-28T04:15:55.385Z,6
2023-01-28T04:21:55.346Z,5
2023-01-28T04:27:55.286Z,6
2023-01-28T04:33:55.358Z,6
2023-01-28T04:39:55.360Z,6
2023-01-28T04:45:55.327Z,6
2023-01-28T04:51:55.306Z,6
2023-01-28T04:57:55.301Z,6
2023-01-28T05:03:55.271Z,10
2023-01-28T05:09:55.369Z,7
2023-01-28T05:15:55.274Z,7
2023-01-28T05:21:55.984Z,7
2023-01-28T05:27:55.323Z,7
2023-01-28T05:34:05.579Z,6
2023-01-28T05:39:55.303Z,7
2023-01-28T05:45:55.354Z,7
2023-01-28T05:51:55.329Z,15
2023-01-28T05:57:55.324Z,8
2023-01-28T06:03:55.340Z,8
2023-01-28T06:09:55.318Z,8
2023-01-28T06:15:55.360Z,7
2023-01-28T06:22:01.916Z,8
2023-01-28T06:27:55.254Z,9
2023-01-28T06:33:55.325Z,8
2023-01-28T06:39:55.311Z,8
2023-01-28T06:45:55.278Z,8
2023-01-28T06:51:55.293Z,8
2023-01-28T06:57:55.301Z,8
2023-01-28T07:03:55.246Z,12
2023-01-28T07:09:55.271Z,9
2023-01-28T07:15:55.292Z,7
2023-01-28T07:23:55.273Z,11
2023-01-28T07:29:55.292Z,8
2023-01-28T07:35:55.290Z,8
2023-01-28T07:41:55.253Z,9
2023-01-28T07:47:55.252Z,8
2023-01-28T07:53:55.290Z,8
2023-01-28T07:59:55.264Z,9
2023-01-28T08:05:55.242Z,11
2023-01-28T08:11:55.285Z,14
2023-01-28T08:17:55.268Z,12
2023-01-28T08:23:55.277Z,10
2023-01-28T08:29:55.259Z,8
2023-01-28T08:35:55.292Z,12
2023-01-28T08:41:55.255Z,15
2023-01-28T08:47:55.277Z,10
2023-01-28T08:53:55.244Z,8
2023-01-28T08:59:55.253Z,8
2023-01-28T09:05:55.260Z,10
2023-01-28T09:11:55.253Z,12
2023-01-28T09:17:55.257Z,14
2023-01-28T09:23:55.372Z,13
2023-01-28T09:29:55.308Z,9
2023-01-28T09:35:55.232Z,10
2023-01-28T09:41:55.267Z,9
2023-01-28T09:47:55.258Z,9
2023-01-28T09:53:55.252Z,7
2023-01-28T09:59:55.268Z,9
2023-01-28T10:05:55.238Z,9
2023-01-28T10:11:55.220Z,9
2023-01-28T10:18:10.825Z,8
2023-01-28T10:23:55.306Z,7
2023-01-28T10:29:55.363Z,8
2023-01-28T10:35:55.276Z,9
2023-01-28T10:41:59.067Z,11
2023-01-28T10:47:55.211Z,12
2023-01-28T10:53:55.251Z,6
2023-01-28T10:59:55.231Z,6
2023-01-28T11:05:55.251Z,6
2023-01-28T11:11:55.264Z,6
2023-01-28T11:17:55.312Z,6
2023-01-28T11:23:57.991Z,8
2023-01-28T11:29:55.229Z,6
2023-01-28T11:35:55.233Z,9
2023-01-28T11:41:55.218Z,8
2023-01-28T11:47:55.248Z,8
2023-01-28T11:53:55.215Z,7
2023-01-28T11:59:55.201Z,9
2023-01-28T12:05:55.261Z,8
2023-01-28T12:11:55.203Z,9
2023-01-28T12:17:55.217Z,10
2023-01-28T12:23:55.307Z,7
2023-01-28T12:29:55.250Z,8
2023-01-28T12:35:55.213Z,8
2023-01-28T12:41:55.252Z,6
2023-01-28T12:47:55.212Z,6
2023-01-28T12:53:55.200Z,6
2023-01-28T12:59:55.214Z,6
2023-01-28T13:05:55.225Z,7
2023-01-28T13:11:55.252Z,6
2023-01-28T13:17:55.216Z,6
2023-01-28T13:23:55.241Z,6
2023-01-28T13:29:55.222Z,8
2023-01-28T13:35:55.203Z,7
2023-01-28T13:41:55.191Z,7
2023-01-28T13:47:55.198Z,8
2023-01-28T13:53:55.217Z,6
2023-01-28T13:59:55.186Z,7
2023-01-28T14:05:55.202Z,7
2023-01-28T14:11:55.194Z,6
2023-01-28T14:17:55.263Z,6
2023-01-28T14:23:55.292Z,6
2023-01-28T14:29:55.258Z,6
2023-01-28T14:35:55.193Z,7
2023-01-28T14:41:55.200Z,8
2023-01-28T14:47:55.209Z,8
2023-01-28T14:53:55.196Z,9
2023-01-28T14:59:55.192Z,8
2023-01-28T15:05:55.204Z,8
2023-01-28T15:11:55.185Z,8
2023-01-28T15:17:55.199Z,9
2023-01-28T15:23:55.306Z,9
2023-01-28T15:29:55.435Z,14
2023-01-28T15:35:55.185Z,7
2023-01-28T15:41:55.210Z,9
2023-01-28T15:47:55.248Z,7
2023-01-28T15:53:55.188Z,34
2023-01-28T15:59:55.203Z,14
2023-01-28T16:05:55.187Z,11
2023-01-28T16:11:55.202Z,11
2023-01-28T16:17:55.195Z,17
2023-01-28T16:23:55.216Z,15
2023-01-28T16:29:55.187Z,15
2023-01-28T16:36:07.752Z,15
2023-01-28T16:41:55.152Z,44
2023-01-28T16:47:55.176Z,27
2023-01-28T16:53:55.221Z,20
2023-01-28T16:59:55.138Z,19
2023-01-28T17:05:55.174Z,10
2023-01-28T17:11:55.196Z,11
2023-01-28T17:17:55.137Z,11
2023-01-28T17:23:56.558Z,14
2023-01-28T17:29:55.168Z,14
2023-01-28T17:35:55.705Z,12
2023-01-28T17:41:55.157Z,21
2023-01-28T17:47:55.184Z,14
2023-01-28T17:53:55.174Z,11
2023-01-28T17:59:55.221Z,12
2023-01-28T18:05:55.178Z,20
2023-01-28T18:11:55.154Z,16
2023-01-28T18:17:55.138Z,18
2023-01-28T18:23:55.239Z,17
2023-01-28T18:29:55.169Z,17
2023-01-28T18:35:55.204Z,16
2023-01-28T18:41:55.171Z,19
2023-01-28T18:47:55.162Z,23
2023-01-28T18:53:55.145Z,23
2023-01-28T18:59:55.183Z,25
2023-01-28T19:05:55.153Z,24
2023-01-28T19:11:55.138Z,19
2023-01-28T19:17:55.188Z,20
2023-01-28T19:23:55.238Z,22
2023-01-28T19:29:55.147Z,19
2023-01-28T19:35:55.160Z,23
2023-01-28T19:41:55.139Z,33
2023-01-28T19:47:55.127Z,29
2023-01-28T19:53:55.437Z,22
2023-01-28T19:59:55.182Z,22
2023-01-28T20:05:55.128Z,23
2023-01-28T20:11:55.175Z,18
2023-01-28T20:17:55.143Z,16
2023-01-28T20:23:55.232Z,16
2023-01-28T20:29:55.145Z,18
2023-01-28T20:35:55.139Z,17
2023-01-28T20:41:55.136Z,17
2023-01-28T20:47:55.200Z,16
2023-01-28T20:53:55.170Z,16
2023-01-28T20:59:55.132Z,15
2023-01-28T21:05:55.167Z,14
2023-01-28T21:11:55.111Z,16
2023-01-28T21:17:55.156Z,15
2023-01-28T21:23:55.170Z,17
2023-01-28T21:29:55.189Z,18
2023-01-28T21:35:55.134Z,19
2023-01-28T21:41:55.137Z,19
2023-01-28T21:47:55.137Z,25
2023-01-28T21:53:55.152Z,27
2023-01-28T21:59:55.172Z,25
2023-01-28T22:05:55.131Z,21
2023-01-28T22:11:55.122Z,29
2023-01-28T22:17:55.121Z,18
2023-01-28T22:23:55.210Z,24
2023-01-28T22:29:55.143Z,21
2023-01-28T22:35:55.116Z,24
2023-01-28T22:41:55.089Z,21
2023-01-28T22:47:55.075Z,27
2023-01-28T22:53:55.153Z,23
2023-01-28T23:00:00.527Z,27
2023-01-28T23:05:55.082Z,24
2023-01-28T23:11:55.223Z,22
2023-01-28T23:17:55.161Z,22
2023-01-28T23:23:55.092Z,31
2023-01-28T23:29:55.134Z,34
2023-01-28T23:35:55.067Z,38
2023-01-28T23:41:55.080Z,37
2023-01-28T23:47:55.140Z,31
2023-01-28T23:53:55.091Z,30
2023-01-28T23:59:55.088Z,29
